CDT,Max TemperatureF,Mean TemperatureF,Min TemperatureF,Max Dew PointF,MeanDew PointF,Min DewpointF,Max Humidity, Mean Humidity, Min Humidity, Max Sea Level PressureIn, Mean Sea Level PressureIn, Min Sea Level PressureIn, Max VisibilityMiles, Mean VisibilityMiles, Min VisibilityMiles, Max Wind SpeedMPH, Mean Wind SpeedMPH, Max Gust SpeedMPH,PrecipitationIn, CloudCover, Events, WindDirDegrees
2012-10-1,78,64,51,55,50,45,100,68,32,29.99,29.93,29.89,10,9,4,20,7,33,0.00,2,,344
2012-10-2,73,63,53,50,46,37,82,60,27,30.06,29.99,29.94,10,9,5,13,8,16,0.00,3,,326
2012-10-3,78,64,50,54,50,46,88,62,36,30.00,29.96,29.91,10,10,8,17,9,26,0.00,0,,177
2012-10-4,66,62,57,55,50,45,82,64,55,30.21,30.10,29.98,10,10,9,17,14,26,0.00,4,,249
2012-10-5,59,52,44,45,38,34,72,60,51,30.27,30.21,30.15,10,10,10,18,14,23,0.00,3,,48
2012-10-6,48,44,37,36,32,28,81,65,50,30.36,30.29,30.25,10,10,10,18,11,24,0.00,8,,41
2012-10-7,48,42,35,37,33,28,93,75,46,30.37,30.31,30.23,10,10,9,10,6,,0.00,2,Rain,4
2012-10-8,62,48,33,39,35,32,100,65,37,30.24,30.14,30.02,10,10,7,17,8,25,0.00,0,,196
2012-10-9,75,62,48,54,47,37,88,68,44,30.10,29.95,29.87,10,10,10,23,15,30,0.00,0,,186
2012-10-10,55,50,44,46,41,39,81,71,62,30.26,30.18,30.10,10,10,10,20,15,25,0.00,0,,37
2012-10-11,,,,,,,,,,,,,,,,,,,,,,
2012-10-12,,,,,,,,,,,,,,,,,,,,,,
2012-10-13,,,,,,,,,,,,,,,,,,,,,,
2012-10-14,,,,,,,,,,,,,,,,,,,,,,
2012-10-15,82,72,62,54,50,46,72,49,28,29.99,29.94,29.92,10,10,10,15,12,21,0.00,0,,204
2012-10-16,77,67,57,57,52,46,77,62,38,29.92,29.74,29.55,10,10,10,24,14,33,0.00,0,,186
2012-10-17,73,62,50,59,48,28,88,59,27,29.89,29.63,29.41,10,10,9,25,16,34,0.00,0,,305
2012-10-18,66,54,41,34,28,21,70,39,19,30.04,29.97,29.89,10,10,5,24,10,34,0.00,1,,304
2012-10-19,71,58,46,36,24,18,58,30,15,30.03,29.95,29.86,10,10,8,22,11,29,0.00,1,,307
2012-10-20,80,64,48,63,48,36,83,57,42,29.86,29.78,29.72,10,10,10,17,10,22,0.00,0,,178
2012-10-21,86,76,66,66,65,63,94,72,51,29.79,29.74,29.71,10,10,7,26,17,36,0.00,0,,181
2012-10-22,80,73,66,66,62,55,83,70,42,29.93,29.86,29.80,10,10,10,26,19,39,0.00,1,,190
2012-10-23,82,73,64,68,66,61,100,80,62,29.89,29.85,29.79,10,10,10,26,17,36,0.00,3,,192
2012-10-24,75,70,64,66,65,63,100,84,69,29.90,29.83,29.72,10,10,8,29,16,36,0.00,6,,179
2012-10-25,71,56,42,63,45,34,88,70,51,30.25,30.00,29.72,10,10,4,28,20,38,0.00,4,Rain,7
2012-10-26,48,40,32,32,28,23,93,63,40,30.45,30.36,30.25,10,10,9,25,16,36,0.00,3,,15
2012-10-27,50,38,26,28,25,21,93,60,35,30.40,30.32,30.21,10,10,7,9,7,,0.00,0,,22
2012-10-28,57,42,28,32,28,25,93,60,31,30.33,30.27,30.20,10,10,8,9,3,,0.00,0,,134
2012-10-29,64,50,35,32,29,25,70,51,26,30.29,30.22,30.10,10,10,6,15,8,22,0.00,0,,183
2012-10-30,77,59,41,41,36,32,70,48,24,30.10,29.99,29.90,10,10,8,15,8,21,0.00,0,,218
2012-10-31,69,55,41,41,39,36,87,58,33,30.11,30.04,29.96,10,10,7,12,8,,0.00,0,,351